臺中航空站 - ATIS

METAR RCMQ 201900Z 17005KT 7000 FEW010 SCT016 22/21 Q1012 RMK A2991=

站台狀態:Online
最後更新:2019-03-21 03:15:01